Time;durP1;ratioP1;P1;durP2;ratioP2;P2;SDS_P1;SDS_P2;PMS_P1;PMS_P2;Temp;Humidity;BMP_temperature;BMP_pressure;BME280_temperature;BME280_humidity;BME280_pressure;Samples;Min_cycle;Max_cycle;Signal;HPM_P1;HPM_P2
2022/05/07 00:02:06;;;;;;;1999.90;999.90;;;;;;;16.92;67.05;95847.22;4953839;29;20062;-66
2022/05/07 00:04:36;;;;;;;1999.90;999.90;;;;;;;16.59;66.72;95837.94;4952839;29;20028;-66
2022/05/07 00:07:03;;;;;;;1999.90;999.90;;;;;;;16.51;67.27;95844.13;4953894;29;20030;-66
2022/05/07 00:09:29;;;;;;;1999.90;999.90;;;;;;;16.79;67.11;95855.22;4952064;29;20394;-66
2022/05/07 00:11:55;;;;;;;1999.90;999.90;;;;;;;16.72;67.08;95844.19;4952334;29;20031;-65
2022/05/07 00:14:20;;;;;;;1999.90;999.90;;;;;;;16.51;67.54;95860.22;4953761;29;20033;-65
2022/05/07 00:19:29;;;;;;;1999.90;999.90;;;;;;;16.30;67.96;95832.53;4953072;29;20463;-66
2022/05/07 00:21:55;;;;;;;1999.90;999.90;;;;;;;16.59;66.99;95837.16;4953367;29;20048;-66
2022/05/07 00:24:20;;;;;;;1999.90;999.90;;;;;;;16.54;67.31;95829.28;4953592;29;20485;-66
2022/05/07 00:26:46;;;;;;;1999.90;999.90;;;;;;;16.80;66.99;95794.22;4953330;29;20113;-66
2022/05/07 00:29:12;;;;;;;1999.90;999.90;;;;;;;17.19;66.98;95813.66;4952935;29;20027;-66
2022/05/07 00:31:37;;;;;;;1999.90;999.90;;;;;;;17.42;66.54;95825.63;4936212;29;20028;-66
2022/05/07 00:34:03;;;;;;;1999.90;999.90;;;;;;;17.19;65.35;95798.31;4953635;29;20102;-66
2022/05/07 00:36:28;;;;;;;1999.90;999.90;;;;;;;16.91;65.44;95791.91;4953201;29;20027;-66
2022/05/07 00:38:53;;;;;;;1999.90;999.90;;;;;;;16.30;67.32;95789.59;4952726;29;20027;-66
2022/05/07 00:41:19;;;;;;;1999.90;999.90;;;;;;;16.74;66.94;95814.34;4953164;29;20039;-66
2022/05/07 00:43:44;;;;;;;1999.90;999.90;;;;;;;16.62;66.46;95810.41;4952908;29;20447;-66
2022/05/07 00:46:11;;;;;;;1999.90;999.90;;;;;;;16.65;67.22;95806.28;4953028;29;20543;-66
2022/05/07 00:48:37;;;;;;;1999.90;999.90;;;;;;;16.69;66.77;95796.47;4952576;29;20495;-66
2022/05/07 00:53:48;;;;;;;1999.90;999.90;;;;;;;17.13;66.11;95789.66;4953037;29;20102;-66
2022/05/07 00:56:14;;;;;;;1999.90;999.90;;;;;;;16.95;66.33;95793.63;4952764;29;20023;-65
2022/05/07 00:58:39;;;;;;;1999.90;999.90;;;;;;;16.26;67.52;95786.75;4950383;28;20036;-65
2022/05/07 01:01:05;;;;;;;1999.90;999.90;;;;;;;16.68;66.93;95799.47;4951469;29;20469;-65
2022/05/07 01:03:31;;;;;;;1999.90;999.90;;;;;;;17.03;66.27;95795.44;4951517;29;20035;-66
2022/05/07 01:05:57;;;;;;;1999.90;999.90;;;;;;;17.08;65.74;95797.94;4952689;29;20440;-65
2022/05/07 01:08:22;;;;;;;1999.90;999.90;;;;;;;17.03;65.52;95779.31;4952292;29;20031;-65
2022/05/07 01:10:48;;;;;;;1999.90;999.90;;;;;;;17.38;65.23;95795.91;4952319;29;20035;-64
2022/05/07 01:13:14;;;;;;;1999.90;999.90;;;;;;;17.40;64.47;95790.22;4952576;29;20027;-65
2022/05/07 01:15:43;;;;;;;1999.90;999.90;;;;;;;17.54;64.48;95793.38;4951201;29;20417;-65
2022/05/07 01:18:10;;;;;;;1999.90;999.90;;;;;;;17.40;64.30;95790.22;4952043;29;20031;-65
2022/05/07 01:20:35;;;;;;;1999.90;999.90;;;;;;;17.07;64.87;95774.84;4952398;29;20488;-66
2022/05/07 01:23:01;;;;;;;1999.90;999.90;;;;;;;17.17;64.82;95772.88;4935239;29;20062;-66
2022/05/07 01:25:26;;;;;;;1999.90;999.90;;;;;;;17.29;64.67;95775.59;4952225;29;20023;-66
2022/05/07 01:27:52;;;;;;;1999.90;999.90;;;;;;;17.03;64.34;95779.31;4952202;29;20111;-66
2022/05/07 01:30:17;;;;;;;1999.90;999.90;;;;;;;17.32;64.75;95801.84;4950682;29;20027;-66
2022/05/07 01:32:43;;;;;;;1999.90;999.90;;;;;;;17.53;64.68;95781.06;4952263;29;20461;-66
2022/05/07 01:35:08;;;;;;;1999.90;999.90;;;;;;;17.34;63.94;95780.78;4950986;29;20039;-66
2022/05/07 01:37:33;;;;;;;1999.90;999.90;;;;;;;17.26;64.03;95769.00;4952112;29;20058;-66
2022/05/07 01:39:59;;;;;;;1999.90;999.90;;;;;;;17.21;64.47;95769.22;4934427;29;20035;-66
2022/05/07 01:42:24;;;;;;;1999.90;999.90;;;;;;;17.41;64.23;95751.47;4952027;29;20046;-66
2022/05/07 01:44:49;;;;;;;1999.90;999.90;;;;;;;17.70;64.29;95765.84;4950792;29;20035;-65
2022/05/07 01:49:59;;;;;;;1999.90;999.90;;;;;;;17.74;63.52;95772.19;4952088;29;20127;-65
2022/05/07 01:52:24;;;;;;;1999.90;999.90;;;;;;;17.86;63.16;95791.03;4951947;29;20114;-66
2022/05/07 01:54:49;;;;;;;1999.90;999.90;;;;;;;17.36;63.47;95743.59;4951955;29;20538;-66
2022/05/07 01:57:15;;;;;;;1999.90;999.90;;;;;;;17.66;63.11;95776.53;4951702;29;20499;-65
2022/05/07 01:59:40;;;;;;;1999.90;999.90;;;;;;;17.70;63.08;95760.47;4950237;29;20039;-65
2022/05/07 02:02:06;;;;;;;1999.90;999.90;;;;;;;17.40;63.39;95756.06;4951813;29;20062;-66
2022/05/07 02:04:32;;;;;;;1999.90;999.90;;;;;;;17.09;63.13;95710.78;4950628;29;20027;-65
2022/05/07 02:06:57;;;;;;;1999.90;999.90;;;;;;;17.39;63.66;95785.94;4951501;29;20106;-67
2022/05/07 02:09:22;;;;;;;1999.90;999.90;;;;;;;17.14;63.92;95767.03;4951254;29;20023;-66
2022/05/07 02:11:48;;;;;;;1999.90;999.90;;;;;;;17.48;63.61;95767.81;4950482;29;20024;-66
2022/05/07 02:14:13;;;;;;;1999.90;999.90;;;;;;;16.55;65.37;95764.47;4952050;29;20947;-65
2022/05/07 02:16:39;;;;;;;1999.90;999.90;;;;;;;16.63;65.53;95760.16;4951600;29;20078;-66
2022/05/07 02:19:04;;;;;;;1999.90;999.90;;;;;;;16.54;66.11;95770.97;4950021;29;20541;-66
2022/05/07 02:21:29;;;;;;;1999.90;999.90;;;;;;;16.51;66.24;95752.81;4934179;29;20035;-66
2022/05/07 02:23:55;;;;;;;1999.90;999.90;;;;;;;17.07;65.28;95777.53;4934459;29;20023;-65
2022/05/07 02:26:20;;;;;;;1999.90;999.90;;;;;;;16.97;65.34;95769.88;4951816;29;20155;-65
2022/05/07 02:28:47;;;;;;;1999.90;999.90;;;;;;;17.08;65.09;95765.66;4951145;29;20384;-65
2022/05/07 02:31:12;;;;;;;1999.90;999.90;;;;;;;17.35;64.33;95769.72;4951518;29;20514;-66
2022/05/07 02:33:38;;;;;;;1999.90;999.90;;;;;;;17.02;64.48;95744.72;4951331;29;20031;-66
2022/05/07 02:36:03;;;;;;;1999.90;999.90;;;;;;;17.31;64.15;95752.66;4951516;29;20090;-66
2022/05/07 02:38:29;;;;;;;1999.90;999.90;;;;;;;17.15;64.24;95752.50;4950439;29;20039;-66
2022/05/07 02:43:38;;;;;;;1999.90;999.90;;;;;;;16.96;64.60;95781.75;4951563;29;20078;-66
2022/05/07 02:46:04;;;;;;;1999.90;999.90;;;;;;;17.44;63.66;95761.53;4950388;29;20036;-68
2022/05/07 02:48:35;;;;;;;1999.90;999.90;;;;;;;17.24;63.91;95741.66;4950488;29;20031;-66
2022/05/07 02:51:01;;;;;;;1999.90;999.90;;;;;;;17.53;63.03;95735.34;4949215;29;20388;-66
2022/05/07 02:53:26;;;;;;;1999.90;999.90;;;;;;;17.38;62.65;95765.56;4949965;29;20024;-64
2022/05/07 02:55:51;;;;;;;1999.90;999.90;;;;;;;17.25;64.17;95770.13;4951387;29;20055;-65
2022/05/07 02:58:17;;;;;;;1999.90;999.90;;;;;;;17.18;63.91;95737.59;4949672;29;20035;-66
2022/05/07 03:00:42;;;;;;;1999.90;999.90;;;;;;;17.30;63.50;95752.97;4951266;29;20472;-66
2022/05/07 03:03:07;;;;;;;1999.90;999.90;;;;;;;17.36;63.17;95735.53;4951243;29;20027;-66
2022/05/07 03:05:33;;;;;;;1999.90;999.90;;;;;;;17.20;62.93;95751.50;4950020;29;20035;-67
2022/05/07 03:07:59;;;;;;;1999.90;999.90;;;;;;;17.34;63.50;95762.75;5016617;23;20051;-68
2022/05/07 03:10:25;;;;;;;1999.90;999.90;;;;;;;17.54;63.22;95771.09;5009609;28;20383;-68
2022/05/07 03:12:51;;;;;;;1999.90;999.90;;;;;;;17.62;62.68;95762.94;4992110;28;20022;-68
2022/05/07 03:15:16;;;;;;;1999.90;999.90;;;;;;;17.66;62.41;95758.47;5009222;28;20026;-69
2022/05/07 03:17:41;;;;;;;1999.90;999.90;;;;;;;17.30;63.45;95777.97;4989844;28;20105;-69
2022/05/07 03:20:11;;;;;;;1999.90;999.90;;;;;;;17.70;62.81;95757.78;4971989;28;20472;-68
2022/05/07 03:22:37;;;;;;;1999.90;999.90;;;;;;;17.98;62.50;95761.44;4991506;28;20023;-68
2022/05/07 03:25:03;;;;;;;1999.90;999.90;;;;;;;18.10;61.84;95761.44;4976023;28;20039;-68
2022/05/07 03:27:30;;;;;;;1999.90;999.90;;;;;;;18.22;61.50;95762.56;4974693;28;20045;-68
2022/05/07 03:29:55;;;;;;;1999.90;999.90;;;;;;;18.25;61.06;95765.38;4975484;28;20033;-71
2022/05/07 03:32:21;;;;;;;1999.90;999.90;;;;;;;18.13;60.91;95774.25;4993067;28;20022;-69
2022/05/07 03:34:46;;;;;;;1999.90;999.90;;;;;;;17.90;61.27;95773.09;4993406;28;20139;-68
2022/05/07 03:37:12;;;;;;;1999.90;999.90;;;;;;;17.48;62.15;95765.13;4993119;28;20030;-69
2022/05/07 03:39:37;;;;;;;1999.90;999.90;;;;;;;17.90;62.08;95773.88;4975075;28;20375;-69
2022/05/07 03:42:03;;;;;;;1999.90;999.90;;;;;;;17.83;62.00;95767.50;4975817;28;20022;-68
2022/05/07 03:44:28;;;;;;;1999.90;999.90;;;;;;;17.38;62.35;95757.50;4993025;28;20019;-68
2022/05/07 03:46:53;;;;;;;1999.90;999.90;;;;;;;17.49;62.23;95777.47;4992988;28;20101;-69
2022/05/07 03:49:19;;;;;;;1999.90;999.90;;;;;;;17.54;62.68;95761.13;4992213;28;20471;-69
2022/05/07 03:54:28;;;;;;;1999.90;999.90;;;;;;;17.95;61.75;95764.78;4992954;28;20045;-68
2022/05/07 03:56:53;;;;;;;1999.90;999.90;;;;;;;17.92;61.57;95768.19;4992865;28;20514;-69
2022/05/07 03:59:19;;;;;;;1999.90;999.90;;;;;;;17.85;61.47;95755.25;4992106;28;20065;-70
2022/05/07 04:01:44;;;;;;;1999.90;999.90;;;;;;;17.70;61.49;95730.88;4992650;28;20028;-69
2022/05/07 04:04:09;;;;;;;1999.90;999.90;;;;;;;17.53;62.11;95748.78;4992642;28;20022;-68
2022/05/07 04:06:35;;;;;;;1999.90;999.90;;;;;;;17.50;62.27;95749.44;4992469;28;20498;-68
2022/05/07 04:09:00;;;;;;;1999.90;999.90;;;;;;;17.78;61.54;95754.25;4992269;28;20080;-68
2022/05/07 04:11:26;;;;;;;1999.90;999.90;;;;;;;17.84;61.68;95771.75;4992339;28;20034;-68
2022/05/07 04:13:51;;;;;;;1999.90;999.90;;;;;;;17.96;61.57;95765.56;4975122;28;20584;-68
2022/05/07 04:16:17;;;;;;;1999.90;999.90;;;;;;;18.05;61.15;95775.13;4992286;28;20033;-69
2022/05/07 04:18:42;;;;;;;1999.90;999.90;;;;;;;17.67;61.94;95760.03;4974508;28;20034;-69
2022/05/07 04:21:07;;;;;;;1999.90;999.90;;;;;;;17.63;61.80;95763.72;4991817;28;20026;-69
2022/05/07 04:23:33;;;;;;;1999.90;999.90;;;;;;;17.07;64.10;95769.47;4974740;28;20085;-68
2022/05/07 04:25:58;;;;;;;1999.90;999.90;;;;;;;17.57;63.02;95752.41;4974522;28;20395;-69
2022/05/07 04:28:24;;;;;;;1999.90;999.90;;;;;;;17.99;62.34;95773.00;4992085;28;20036;-69
2022/05/07 04:30:49;;;;;;;1999.90;999.90;;;;;;;17.79;62.43;95771.97;4992075;28;20026;-67
2022/05/07 04:33:18;;;;;;;1999.90;999.90;;;;;;;17.84;61.39;95747.53;4974754;28;20029;-68
2022/05/07 04:35:43;;;;;;;1999.90;999.90;;;;;;;17.50;62.07;95735.22;4992088;28;20109;-68
2022/05/07 04:38:08;;;;;;;1999.90;999.90;;;;;;;17.21;63.57;95771.13;4991632;28;20113;-68
2022/05/07 04:40:34;;;;;;;1999.90;999.90;;;;;;;17.42;63.24;95772.63;4991993;28;20041;-67
2022/05/07 04:42:59;;;;;;;1999.90;999.90;;;;;;;17.57;62.95;95765.84;4974495;28;20088;-67
2022/05/07 04:45:25;;;;;;;1999.90;999.90;;;;;;;17.33;63.25;95771.16;4991729;28;20184;-68
2022/05/07 04:47:52;;;;;;;1999.90;999.90;;;;;;;17.30;63.98;95782.56;4974330;28;20029;-68
2022/05/07 04:50:17;;;;;;;1999.90;999.90;;;;;;;17.23;63.98;95780.41;4991406;28;20066;-66
2022/05/07 04:52:42;;;;;;;1999.90;999.90;;;;;;;16.45;66.58;95782.88;4991893;28;20030;-68
2022/05/07 04:55:08;;;;;;;1999.90;999.90;;;;;;;17.09;65.25;95772.63;4974106;28;20471;-67
2022/05/07 04:57:34;;;;;;;1999.90;999.90;;;;;;;17.58;63.64;95763.94;4973962;28;20085;-68
2022/05/07 04:59:59;;;;;;;1999.90;999.90;;;;;;;17.85;62.90;95776.00;4990967;28;20030;-68
2022/05/07 05:02:25;;;;;;;1999.90;999.90;;;;;;;18.07;61.95;95743.28;4974035;28;20103;-67
2022/05/07 05:04:51;;;;;;;1999.90;999.90;;;;;;;17.28;63.73;95790.97;4974030;28;20065;-68
2022/05/07 05:07:16;;;;;;;1999.90;999.90;;;;;;;17.25;63.74;95788.13;4973700;28;20527;-67
2022/05/07 05:09:42;;;;;;;1999.90;999.90;;;;;;;17.05;64.67;95793.22;4991105;28;20022;-68
2022/05/07 05:12:07;;;;;;;1999.90;999.90;;;;;;;17.53;63.04;95770.31;4991236;28;20030;-68
2022/05/07 05:17:17;;;;;;;1999.90;999.90;;;;;;;17.36;63.99;95781.25;4991362;28;20494;-68
2022/05/07 05:19:42;;;;;;;1999.90;999.90;;;;;;;17.83;62.97;95778.25;4991032;28;20026;-67
2022/05/07 05:22:07;;;;;;;1999.90;999.90;;;;;;;17.84;62.23;95795.97;4991109;28;20470;-68
2022/05/07 05:24:33;;;;;;;1999.90;999.90;;;;;;;17.09;63.65;95772.63;4991382;28;20029;-68
2022/05/07 05:26:58;;;;;;;1999.90;999.90;;;;;;;17.41;63.79;95781.81;4973556;28;20026;-67
2022/05/07 05:29:23;;;;;;;1999.90;999.90;;;;;;;18.08;61.98;95798.69;4990862;28;20478;-68
2022/05/07 05:31:49;;;;;;;1999.90;999.90;;;;;;;17.60;62.05;95764.38;4991083;28;20018;-67
2022/05/07 05:34:14;;;;;;;1999.90;999.90;;;;;;;16.84;64.76;95822.78;4991082;28;20030;-67
2022/05/07 05:36:40;;;;;;;1999.90;999.90;;;;;;;17.05;65.04;95795.91;4990952;28;20109;-67
2022/05/07 05:39:07;;;;;;;1999.90;999.90;;;;;;;16.95;65.05;95804.38;4973052;28;20165;-67
2022/05/07 05:41:33;;;;;;;1999.90;999.90;;;;;;;17.78;63.01;95803.47;4990983;28;20410;-67
2022/05/07 05:43:59;;;;;;;1999.90;999.90;;;;;;;17.91;62.47;95807.75;4973485;28;20022;-68
2022/05/07 05:46:24;;;;;;;1999.90;999.90;;;;;;;18.40;61.55;95807.00;4990507;28;20522;-68
2022/05/07 05:48:50;;;;;;;1999.90;999.90;;;;;;;18.66;60.58;95810.09;4973078;28;20025;-68
2022/05/07 05:51:15;;;;;;;1999.90;999.90;;;;;;;18.65;59.89;95805.84;4973198;28;20493;-68
2022/05/07 05:53:41;;;;;;;1999.90;999.90;;;;;;;18.86;59.06;95780.69;4990696;28;20037;-69
2022/05/07 05:56:06;;;;;;;1999.90;999.90;;;;;;;18.83;58.06;95790.22;4972957;28;20030;-66
2022/05/07 05:58:35;;;;;;;1999.90;999.90;;;;;;;18.72;58.76;95807.22;4990202;28;20037;-66
2022/05/07 06:01:02;;;;;;;1999.90;999.90;;;;;;;19.42;57.92;95807.69;4990563;28;20033;-66
2022/05/07 06:03:29;;;;;;;1999.90;999.90;;;;;;;19.68;57.53;95791.84;4990447;28;20030;-67
2022/05/07 06:05:54;;;;;;;1999.90;999.90;;;;;;;19.50;55.86;95798.66;4972897;28;20156;-67
2022/05/07 06:08:37;;;;;;;1999.90;999.90;;;;;;;18.59;57.70;95803.72;4989959;28;20519;-66
2022/05/07 06:11:03;;;;;;;1999.90;999.90;;;;;;;18.89;57.99;95809.66;4973133;28;20022;-67
2022/05/07 06:13:31;;;;;;;1999.90;999.90;;;;;;;19.16;57.42;95808.13;4972941;28;20105;-66
2022/05/07 06:15:56;;;;;;;1999.90;999.90;;;;;;;18.62;57.13;95795.75;4990423;28;20042;-66
2022/05/07 06:18:22;;;;;;;1999.90;999.90;;;;;;;18.05;59.69;95818.19;4989743;28;20037;-66
2022/05/07 06:20:49;;;;;;;1999.90;999.90;;;;;;;18.90;57.74;95805.84;4990341;28;20022;-67
2022/05/07 06:23:18;;;;;;;1999.90;999.90;;;;;;;18.90;57.37;95803.16;4972757;28;20463;-67
2022/05/07 06:28:28;;;;;;;1999.90;999.90;;;;;;;18.36;57.93;95800.69;4989545;28;20040;-66
2022/05/07 06:30:53;;;;;;;1999.90;999.90;;;;;;;19.22;56.37;95801.34;4990043;28;20110;-68
2022/05/07 06:33:20;;;;;;;1999.90;999.90;;;;;;;19.43;55.33;95793.06;4972287;28;20456;-69
2022/05/07 06:35:46;;;;;;;1999.90;999.90;;;;;;;19.83;54.66;95811.88;4989838;28;20651;-67
2022/05/07 06:38:12;;;;;;;1999.90;999.90;;;;;;;19.14;54.71;95811.19;4972556;28;20038;-65
2022/05/07 06:40:38;;;;;;;1999.90;999.90;;;;;;;19.32;56.04;95810.88;4972248;28;20022;-65
2022/05/07 06:43:05;;;;;;;1999.90;999.90;;;;;;;19.34;55.05;95811.31;4972466;28;20460;-65
2022/05/07 06:45:31;;;;;;;1999.90;999.90;;;;;;;19.96;53.96;95805.28;4972152;28;20035;-65
2022/05/07 06:47:56;;;;;;;1999.90;999.90;;;;;;;20.29;53.33;95800.66;4989410;28;20081;-64
2022/05/07 06:50:22;;;;;;;1999.90;999.90;;;;;;;20.08;53.47;95790.13;4989757;28;20035;-67
2022/05/07 06:52:47;;;;;;;1999.90;999.90;;;;;;;20.22;52.72;95810.19;4972155;28;20555;-66
2022/05/07 06:55:14;;;;;;;1999.90;999.90;;;;;;;19.50;53.98;95809.47;4989573;28;20027;-68
2022/05/07 06:57:40;;;;;;;1999.90;999.90;;;;;;;20.07;53.54;95783.97;4991435;28;20049;-68
2022/05/07 07:00:06;;;;;;;1999.90;999.90;;;;;;;20.49;51.96;95797.72;4993184;28;20093;-70
2022/05/07 07:02:31;;;;;;;1999.90;999.90;;;;;;;20.62;52.25;95808.41;4975939;28;20085;-69
2022/05/07 07:04:57;;;;;;;1999.90;999.90;;;;;;;20.48;52.22;95808.88;4975390;28;20833;-69
2022/05/07 07:07:25;;;;;;;1999.90;999.90;;;;;;;20.54;52.27;95814.81;4975616;28;20023;-69
2022/05/07 07:09:51;;;;;;;1999.90;999.90;;;;;;;20.49;52.27;95810.44;4975275;28;20030;-69
2022/05/07 07:12:16;;;;;;;1999.90;999.90;;;;;;;20.12;52.28;95802.59;4993112;28;20081;-68
2022/05/07 07:14:42;;;;;;;1999.90;999.90;;;;;;;20.21;52.20;95805.09;4993265;28;20026;-68
2022/05/07 07:17:07;;;;;;;1999.90;999.90;;;;;;;20.17;52.79;95815.06;4993080;28;20025;-73
2022/05/07 07:19:34;;;;;;;1999.90;999.90;;;;;;;20.03;52.32;95806.59;4975058;28;20471;-67
2022/05/07 07:22:00;;;;;;;1999.90;999.90;;;;;;;19.39;53.66;95798.34;4992455;28;20118;-66
2022/05/07 07:24:25;;;;;;;1999.90;999.90;;;;;;;20.13;52.78;95800.69;4993001;28;20030;-66
2022/05/07 07:26:51;;;;;;;1999.90;999.90;;;;;;;20.34;52.67;95816.63;4975442;28;20034;-65
2022/05/07 07:29:17;;;;;;;1999.90;999.90;;;;;;;20.80;51.32;95819.63;4974876;28;20022;-65
2022/05/07 07:31:42;;;;;;;1999.90;999.90;;;;;;;19.92;52.33;95817.13;4974722;28;20030;-65
2022/05/07 07:34:08;;;;;;;1999.90;999.90;;;;;;;19.06;54.51;95803.22;4992335;28;20052;-65
2022/05/07 07:36:33;;;;;;;1999.90;999.90;;;;;;;19.45;53.74;95812.41;4992860;28;20076;-65
2022/05/07 07:38:59;;;;;;;1999.90;999.90;;;;;;;19.80;54.02;95822.59;4974642;28;20073;-64
2022/05/07 07:41:25;;;;;;;1999.90;999.90;;;;;;;19.28;54.33;95818.09;4992498;28;20053;-65
2022/05/07 07:43:50;;;;;;;1999.90;999.90;;;;;;;19.73;53.49;95804.31;4974830;28;20471;-65
2022/05/07 07:49:00;;;;;;;1999.90;999.90;;;;;;;19.86;53.06;95813.09;4992083;28;20077;-66
2022/05/07 07:51:25;;;;;;;1999.90;999.90;;;;;;;19.68;53.10;95818.84;4974754;28;20065;-65
2022/05/07 07:53:50;;;;;;;1999.90;999.90;;;;;;;18.81;55.37;95802.50;4992381;28;20098;-65
2022/05/07 07:56:16;;;;;;;1999.90;999.90;;;;;;;19.03;55.13;95818.16;4992144;28;20105;-65
2022/05/07 07:58:42;;;;;;;1999.90;999.90;;;;;;;19.13;54.74;95825.75;4991240;28;20499;-65
2022/05/07 08:01:07;;;;;;;1999.90;999.90;;;;;;;19.13;55.06;95812.28;4992569;28;20022;-65
2022/05/07 08:03:33;;;;;;;1999.90;999.90;;;;;;;19.31;55.65;95828.97;4992417;28;20415;-66
2022/05/07 08:05:59;;;;;;;1999.90;999.90;;;;;;;19.16;56.48;95821.63;4974809;28;20443;-65
2022/05/07 08:13:55;;;;;;;1999.90;999.90;;;;;;;17.85;60.22;95802.91;4992063;28;20478;-66
2022/05/07 08:16:22;;;;;;;1999.90;999.90;;;;;;;18.35;60.29;95837.63;4994137;28;20080;-65
2022/05/07 08:18:50;;;;;;;1999.90;999.90;;;;;;;18.63;61.00;95843.13;4991708;28;20026;-65
2022/05/07 08:21:15;;;;;;;1999.90;999.90;;;;;;;18.14;59.84;95823.47;4989457;28;20505;-65
2022/05/07 08:23:41;;;;;;;1999.90;999.90;;;;;;;18.30;60.67;95845.16;4993487;28;20022;-65
2022/05/07 08:26:08;;;;;;;1999.90;999.90;;;;;;;18.20;61.08;95838.28;4973710;28;20379;-67
2022/05/07 08:28:35;;;;;;;1999.90;999.90;;;;;;;18.36;60.54;95849.19;4970458;28;20041;-68
2022/05/07 08:31:00;;;;;;;1999.90;999.90;;;;;;;18.76;60.34;95848.53;4994991;28;20022;-67
2022/05/07 08:33:27;;;;;;;1999.90;999.90;;;;;;;19.12;60.55;95826.91;4975411;28;20569;-69
2022/05/07 08:35:53;;;;;;;1999.90;999.90;;;;;;;19.46;60.22;95840.94;4973663;28;20030;-67
2022/05/07 08:38:19;;;;;;;1999.90;999.90;;;;;;;19.35;60.38;95837.19;4973163;28;20030;-66
2022/05/07 08:40:45;;;;;;;1999.90;999.90;;;;;;;18.61;58.97;95828.41;4974527;28;20019;-68
2022/05/07 08:43:10;;;;;;;1999.90;999.90;;;;;;;17.47;61.29;95830.03;4971812;28;20034;-70
2022/05/07 08:45:39;;;;;;;1999.90;999.90;;;;;;;18.09;62.75;95851.41;4972955;28;20033;-70
2022/05/07 08:48:04;;;;;;;1999.90;999.90;;;;;;;17.21;64.10;95852.56;4985294;28;20503;-70
2022/05/07 08:50:30;;;;;;;1999.90;999.90;;;;;;;16.66;65.14;95825.88;4974986;28;20026;-69
2022/05/07 08:52:55;;;;;;;1999.90;999.90;;;;;;;17.88;65.34;95851.47;4992074;28;20044;-69
2022/05/07 08:55:21;;;;;;;1999.90;999.90;;;;;;;17.76;64.28;95845.25;4992318;28;20034;-68
2022/05/07 08:57:49;;;;;;;1999.90;999.90;;;;;;;17.59;64.12;95859.66;4990489;28;20058;-68
2022/05/07 09:00:23;;;;;;;1999.90;999.90;;;;;;;17.13;64.88;95827.28;4972540;28;20033;-69
2022/05/07 09:02:58;;;;;;;1999.90;999.90;;;;;;;17.98;65.16;95854.88;4973027;28;20030;-71
2022/05/07 09:05:37;;;;;;;1999.90;999.90;;;;;;;17.98;64.51;95861.03;4958342;28;20106;-67
2022/05/07 09:08:05;;;;;;;1999.90;999.90;;;;;;;16.95;65.72;95858.13;4991366;28;20038;-70
2022/05/07 09:10:33;;;;;;;1999.90;999.90;;;;;;;17.41;66.06;95864.41;4992161;28;20018;-69
2022/05/07 09:13:12;;;;;;;1999.90;999.90;;;;;;;17.82;65.29;95855.50;4989955;28;20112;-71
2022/05/07 09:15:51;;;;;;;1999.90;999.90;;;;;;;17.72;65.03;95869.34;4991847;28;20049;-69
2022/05/07 09:18:19;;;;;;;1999.90;999.90;;;;;;;17.87;64.52;95830.28;4991318;28;20056;-70
2022/05/07 09:21:23;;;;;;;1999.90;999.90;;;;;;;17.92;64.37;95862.38;4990765;28;20057;-71
2022/05/07 09:24:09;;;;;;;1999.90;999.90;;;;;;;17.42;64.25;95871.34;4992178;28;20430;-70
2022/05/07 09:26:40;;;;;;;1999.90;999.90;;;;;;;17.29;64.98;95832.06;4995666;23;20069;-68
2022/05/07 09:29:13;;;;;;;1999.90;999.90;;;;;;;17.76;63.97;95866.78;4980072;28;20027;-67
2022/05/07 09:31:43;;;;;;;1999.90;999.90;;;;;;;17.19;63.39;95840.53;4982199;28;20030;-71
2022/05/07 09:37:11;;;;;;;1999.90;999.90;;;;;;;17.50;63.69;95854.34;4970488;28;20038;-76
2022/05/07 09:39:37;;;;;;;1999.90;999.90;;;;;;;18.36;63.06;95833.03;4970463;28;20035;-71
2022/05/07 09:42:03;;;;;;;1999.90;999.90;;;;;;;18.57;62.27;95841.78;4952711;28;20034;-80
2022/05/07 09:44:29;;;;;;;1999.90;999.90;;;;;;;18.42;62.48;95799.34;4970605;28;20469;-75
2022/05/07 09:46:56;;;;;;;1999.90;999.90;;;;;;;18.92;60.79;95806.28;4971290;28;20029;-72
2022/05/07 09:49:25;;;;;;;1999.90;999.90;;;;;;;19.35;60.27;95856.06;4970938;28;20069;-71
2022/05/07 09:51:51;;;;;;;1999.90;999.90;;;;;;;19.07;59.32;95834.44;4971206;28;20144;-67
2022/05/07 09:59:45;;;;;;;1999.90;999.90;;;;;;;19.43;60.14;95845.09;4970036;28;20046;-71
2022/05/07 10:02:22;;;;;;;1999.90;999.90;;;;;;;19.54;58.94;95845.41;4971658;28;20027;-76
2022/05/07 10:05:07;;;;;;;1999.90;999.90;;;;;;;20.45;57.93;95841.97;4971063;28;20027;-68
2022/05/07 10:08:17;;;;;;;1999.90;999.90;;;;;;;20.82;56.49;95838.97;4971069;28;20142;-73
2022/05/07 10:10:45;;;;;;;1999.90;999.90;;;;;;;20.99;55.32;95808.84;4934161;28;20075;-72
2022/05/07 10:13:16;;;;;;;1999.90;999.90;;;;;;;20.74;54.46;95798.28;4970913;28;20089;-72
2022/05/07 10:15:43;;;;;;;1999.90;999.90;;;;;;;19.96;55.51;95818.78;4970123;28;20121;-73
2022/05/07 10:18:19;;;;;;;1999.90;999.90;;;;;;;20.23;55.46;95787.44;4970183;28;20027;-72
2022/05/07 10:20:49;;;;;;;1999.90;999.90;;;;;;;19.52;56.46;95814.50;4970816;28;20023;-71
2022/05/07 10:23:26;;;;;;;1999.90;999.90;;;;;;;20.03;56.61;95839.78;4970654;28;20110;-72
2022/05/07 10:25:56;;;;;;;1999.90;999.90;;;;;;;19.94;55.97;95815.66;4953393;28;20039;-73
2022/05/07 10:28:22;;;;;;;1999.90;999.90;;;;;;;19.79;55.05;95797.50;4953047;28;20038;-72
2022/05/07 10:30:49;;;;;;;1999.90;999.90;;;;;;;19.34;56.74;95812.09;4970655;28;20038;-71
2022/05/07 10:33:15;;;;;;;1999.90;999.90;;;;;;;19.41;56.41;95843.91;4957378;28;20034;-71
2022/05/07 10:35:52;;;;;;;1999.90;999.90;;;;;;;19.48;55.91;95835.97;4974841;28;20031;-71
2022/05/07 10:38:23;;;;;;;1999.90;999.90;;;;;;;19.80;55.72;95833.38;4974496;28;20376;-71
2022/05/07 10:40:50;;;;;;;1999.90;999.90;;;;;;;20.33;54.37;95829.34;4974729;28;20089;-72
2022/05/07 10:43:25;;;;;;;1999.90;999.90;;;;;;;20.79;52.74;95839.69;4974750;28;20038;-72
2022/05/07 10:45:55;;;;;;;1999.90;999.90;;;;;;;20.58;53.05;95829.97;4973758;28;20030;-72
2022/05/07 10:48:20;;;;;;;1999.90;999.90;;;;;;;21.17;52.64;95831.63;4974132;28;20085;-73
2022/05/07 10:50:54;;;;;;;1999.90;999.90;;;;;;;20.94;50.19;95796.38;4974247;28;20480;-72
2022/05/07 10:53:20;;;;;;;1999.90;999.90;;;;;;;20.38;51.59;95734.50;4974533;28;20041;-73
2022/05/07 10:55:49;;;;;;;1999.90;999.90;;;;;;;21.71;50.87;95838.94;4974681;28;20395;-74
2022/05/07 10:58:14;;;;;;;1999.90;999.90;;;;;;;21.80;50.31;95822.44;4973900;28;20023;-73
2022/05/07 11:00:55;;;;;;;1999.90;999.90;;;;;;;21.58;48.96;95809.66;4973453;28;20383;-84
2022/05/07 11:03:28;;;;;;;1999.90;999.90;;;;;;;22.12;49.85;95828.47;4956861;28;20031;-75
2022/05/07 11:06:02;;;;;;;1999.90;999.90;;;;;;;22.43;48.04;95802.25;4974181;28;20035;-75
2022/05/07 11:08:30;;;;;;;1999.90;999.90;;;;;;;22.72;48.14;95823.19;4974007;28;20023;-76
2022/05/07 11:11:09;;;;;;;1999.90;999.90;;;;;;;22.57;47.92;95822.22;4956229;28;20047;-73
2022/05/07 11:13:50;;;;;;;1999.90;999.90;;;;;;;22.12;48.67;95820.34;4974275;28;20023;-74
2022/05/07 11:16:17;;;;;;;1999.90;999.90;;;;;;;21.84;48.64;95830.63;4956349;28;20512;-75
2022/05/07 11:18:51;;;;;;;1999.90;999.90;;;;;;;21.33;49.47;95809.16;4973848;28;20026;-76
2022/05/07 11:21:21;;;;;;;1999.90;999.90;;;;;;;20.74;51.37;95821.81;4973820;28;20034;-73
2022/05/07 11:23:58;;;;;;;1999.90;999.90;;;;;;;21.66;50.26;95822.19;4974035;28;20031;-72
2022/05/07 11:26:25;;;;;;;1999.90;999.90;;;;;;;21.03;49.95;95810.47;4974139;28;20113;-80
2022/05/07 11:28:51;;;;;;;1999.90;999.90;;;;;;;21.27;50.62;95828.38;4973535;28;20090;-77
2022/05/07 11:31:31;;;;;;;1999.90;999.90;;;;;;;22.17;49.09;95814.63;4955557;28;20035;-77